Time;durP1;ratioP1;P1;durP2;ratioP2;P2;SDS_P1;SDS_P2;PMS_P1;PMS_P2;Temp;Humidity;BMP_temperature;BMP_pressure;BME280_temperature;BME280_humidity;BME280_pressure;Samples;Min_cycle;Max_cycle;Signal;HPM_P1;HPM_P2
2023/09/13 00:00:07;;;;;;;6.78;6.13;;;22.80;74.30;;;;;;5039560;28;20051;-52
2023/09/13 00:02:45;;;;;;;6.75;6.05;;;22.80;74.40;;;;;;5041101;28;20047;-54
2023/09/13 00:05:18;;;;;;;6.47;5.80;;;22.80;74.70;;;;;;5046404;28;20075;-53
2023/09/13 00:07:45;;;;;;;7.93;7.13;;;22.80;74.50;;;;;;5049354;28;20052;-54
2023/09/13 00:10:14;;;;;;;10.20;7.43;;;22.70;74.70;;;;;;5042359;28;20044;-51
2023/09/13 00:12:46;;;;;;;8.60;7.75;;;22.70;74.90;;;;;;5044699;28;20048;-52
2023/09/13 00:15:13;;;;;;;8.65;7.75;;;22.70;74.90;;;;;;5039313;28;20034;-51
2023/09/13 00:17:42;;;;;;;11.27;9.30;;;22.70;74.80;;;;;;5046110;28;20123;-51
2023/09/13 00:20:11;;;;;;;13.32;9.85;;;22.60;74.80;;;;;;5041152;28;20040;-53
2023/09/13 00:22:38;;;;;;;11.63;9.68;;;22.70;74.90;;;;;;5042340;28;20037;-54
2023/09/13 00:25:09;;;;;;;13.48;10.60;;;22.70;75.00;;;;;;5046329;28;20594;-50
2023/09/13 00:27:36;;;;;;;14.55;11.32;;;22.70;74.80;;;;;;5037922;28;20048;-54
2023/09/13 00:30:10;;;;;;;11.63;10.25;;;22.70;75.00;;;;;;5043222;28;20138;-54
2023/09/13 00:32:43;;;;;;;13.48;11.18;;;22.80;74.80;;;;;;5040670;28;20546;-54
2023/09/13 00:35:10;;;;;;;14.85;11.50;;;22.70;74.80;;;;;;5041965;28;20129;-50
2023/09/13 00:37:39;;;;;;;14.10;12.07;;;22.80;74.90;;;;;;5047211;28;20053;-51
2023/09/13 00:40:07;;;;;;;11.70;10.50;;;22.80;74.90;;;;;;5040202;28;20076;-52
2023/09/13 00:42:36;;;;;;;14.40;12.25;;;22.80;74.80;;;;;;5043014;28;20056;-53
2023/09/13 00:45:07;;;;;;;14.00;11.07;;;22.80;74.70;;;;;;5041739;28;20183;-54
2023/09/13 00:47:34;;;;;;;15.10;12.20;;;22.80;74.80;;;;;;5042599;28;20049;-51
2023/09/13 00:50:03;;;;;;;14.05;11.25;;;22.80;74.60;;;;;;5041237;28;20041;-49
2023/09/13 00:52:29;;;;;;;17.30;11.52;;;22.80;74.60;;;;;;5038268;28;20071;-53
2023/09/13 00:55:00;;;;;;;15.73;11.65;;;22.80;74.40;;;;;;5041957;28;20033;-54
2023/09/13 00:57:30;;;;;;;14.60;12.38;;;22.80;74.60;;;;;;5047257;28;20052;-52
2023/09/13 00:59:56;;;;;;;17.27;11.75;;;22.80;74.80;;;;;;5045144;28;20044;-53
2023/09/13 01:02:28;;;;;;;16.58;13.38;;;22.80;74.80;;;;;;5031272;28;20445;-54
2023/09/13 01:04:55;;;;;;;15.80;12.95;;;22.80;74.70;;;;;;5042154;28;20100;-52
2023/09/13 01:07:24;;;;;;;17.27;13.55;;;22.90;74.60;;;;;;5045506;28;20458;-50
2023/09/13 01:09:54;;;;;;;17.08;13.85;;;22.90;74.90;;;;;;5045835;28;20077;-52
2023/09/13 01:12:22;;;;;;;16.38;12.73;;;22.90;74.40;;;;;;5045042;28;20065;-54
2023/09/13 01:14:53;;;;;;;15.05;13.13;;;22.80;74.20;;;;;;5044506;28;20518;-51
2023/09/13 01:17:34;;;;;;;18.30;12.77;;;22.90;74.20;;;;;;5043985;28;20041;-53
2023/09/13 01:20:12;;;;;;;14.82;12.07;;;22.90;74.40;;;;;;5044606;28;20055;-53
2023/09/13 01:23:05;;;;;;;16.08;13.35;;;22.90;74.30;;;;;;5028843;28;20041;-55
2023/09/13 01:25:50;;;;;;;15.05;12.90;;;22.90;74.80;;;;;;5051526;28;20064;-52
2023/09/13 01:29:02;;;;;;;16.27;13.98;;;22.90;75.10;;;;;;5025984;28;20038;-54
2023/09/13 01:31:37;;;;;;;14.43;12.02;;;22.90;75.00;;;;;;5040420;28;20072;-52
2023/09/13 01:34:04;;;;;;;18.02;12.18;;;22.90;74.10;;;;;;5040578;28;20116;-53
2023/09/13 01:36:31;;;;;;;16.13;13.82;;;22.90;73.80;;;;;;5045004;28;20596;-52
2023/09/13 01:38:57;;;;;;;18.17;15.40;;;22.90;74.10;;;;;;5048933;28;20045;-52
2023/09/13 01:41:33;;;;;;;18.35;14.40;;;22.90;74.30;;;;;;5044283;28;20065;-51
2023/09/13 01:44:00;;;;;;;20.88;14.60;;;22.90;74.20;;;;;;5044497;28;20123;-54
2023/09/13 01:46:34;;;;;;;16.80;14.25;;;22.90;73.90;;;;;;5045325;28;20530;-52
2023/09/13 01:49:04;;;;;;;20.02;15.23;;;22.90;74.30;;;;;;5033546;28;20156;-54
2023/09/13 01:51:32;;;;;;;20.38;14.73;;;22.90;74.10;;;;;;5046144;28;20148;-53
2023/09/13 01:54:00;;;;;;;22.17;14.75;;;22.90;74.10;;;;;;5047181;28;20434;-51
2023/09/13 01:56:29;;;;;;;19.85;15.45;;;22.90;73.90;;;;;;5027159;28;20033;-53
2023/09/13 01:58:56;;;;;;;21.90;18.20;;;22.90;73.90;;;;;;5032479;28;20048;-50
2023/09/13 02:01:26;;;;;;;27.63;19.90;;;23.00;74.00;;;;;;5041436;28;20099;-52
2023/09/13 02:03:56;;;;;;;28.50;19.23;;;23.00;73.80;;;;;;5042768;28;20577;-50
2023/09/13 02:06:25;;;;;;;30.00;21.73;;;23.00;74.10;;;;;;5044565;28;20099;-52
2023/09/13 02:08:52;;;;;;;29.08;20.00;;;23.00;74.20;;;;;;5045836;28;20045;-53
2023/09/13 02:11:18;;;;;;;31.75;22.10;;;23.00;73.90;;;;;;5045828;28;20091;-50
2023/09/13 02:13:46;;;;;;;31.48;22.38;;;23.00;74.00;;;;;;5043587;28;20121;-52
2023/09/13 02:16:20;;;;;;;33.20;23.02;;;22.90;74.00;;;;;;5043216;28;20526;-52
2023/09/13 02:18:46;;;;;;;34.67;23.20;;;23.00;74.10;;;;;;5050013;28;20045;-54
2023/09/13 02:21:15;;;;;;;34.83;23.80;;;22.90;73.70;;;;;;5049069;28;20207;-54
2023/09/13 02:23:42;;;;;;;35.65;23.17;;;22.90;74.40;;;;;;5031737;28;20143;-53
2023/09/13 02:26:20;;;;;;;34.47;26.17;;;22.90;73.90;;;;;;5049567;28;20545;-53
2023/09/13 02:28:51;;;;;;;35.08;25.30;;;22.90;74.30;;;;;;5055187;28;20037;-53
2023/09/13 02:31:28;;;;;;;39.50;26.00;;;22.90;74.00;;;;;;5044058;28;20415;-54
2023/09/13 02:33:56;;;;;;;34.92;25.70;;;22.90;74.40;;;;;;5045284;28;20497;-53
2023/09/13 02:36:27;;;;;;;37.42;26.90;;;22.90;74.30;;;;;;5036682;28;20136;-52
2023/09/13 02:38:54;;;;;;;37.22;27.23;;;22.90;74.40;;;;;;5051416;28;20055;-54
2023/09/13 02:41:22;;;;;;;37.70;26.05;;;22.90;74.20;;;;;;5047819;28;20527;-50
2023/09/13 02:43:48;;;;;;;42.90;28.60;;;22.90;74.30;;;;;;5048722;28;20142;-50
2023/09/13 02:46:15;;;;;;;43.13;28.42;;;22.90;74.40;;;;;;5046975;28;20162;-54
2023/09/13 02:48:47;;;;;;;40.33;28.75;;;22.90;74.20;;;;;;5048316;28;20041;-52
2023/09/13 02:51:15;;;;;;;44.30;29.33;;;22.90;74.10;;;;;;5045020;28;20128;-52
2023/09/13 02:53:41;;;;;;;43.92;29.92;;;22.80;73.90;;;;;;5042925;28;20041;-51
2023/09/13 02:56:09;;;;;;;43.20;29.98;;;22.80;73.90;;;;;;5037677;28;20135;-50
2023/09/13 02:58:37;;;;;;;45.75;30.02;;;22.80;73.80;;;;;;5042793;28;20051;-52
2023/09/13 03:01:07;;;;;;;49.47;30.42;;;22.80;73.90;;;;;;5042403;28;20593;-49
2023/09/13 03:03:34;;;;;;;44.70;30.02;;;22.70;74.10;;;;;;5046669;28;20072;-52
2023/09/13 03:06:12;;;;;;;47.03;31.73;;;22.70;74.10;;;;;;5046759;28;20461;-51
2023/09/13 03:08:40;;;;;;;48.75;31.45;;;22.70;74.40;;;;;;5035177;28;20051;-54
2023/09/13 03:11:11;;;;;;;41.22;28.40;;;22.70;74.20;;;;;;5044531;28;20099;-54
2023/09/13 03:13:38;;;;;;;40.57;29.63;;;22.60;74.70;;;;;;5039889;28;20041;-54
2023/09/13 03:16:10;;;;;;;42.67;29.50;;;22.60;74.50;;;;;;5047910;28;20056;-54
2023/09/13 03:18:43;;;;;;;42.53;29.73;;;22.60;74.80;;;;;;5052148;28;20064;-51
2023/09/13 03:21:14;;;;;;;43.30;31.27;;;22.60;74.70;;;;;;5045506;28;20044;-52
2023/09/13 03:23:54;;;;;;;44.38;30.80;;;22.70;74.70;;;;;;5043274;28;20713;-50
2023/09/13 03:26:23;;;;;;;41.65;29.00;;;22.70;74.60;;;;;;5036091;28;20376;-54
2023/09/13 03:28:54;;;;;;;46.97;32.22;;;22.60;74.50;;;;;;5049486;28;20048;-53
2023/09/13 03:31:23;;;;;;;42.90;30.60;;;22.60;74.50;;;;;;5046371;28;20044;-53
2023/09/13 03:33:55;;;;;;;45.30;30.50;;;22.60;74.60;;;;;;5039354;28;20037;-51
2023/09/13 03:36:27;;;;;;;44.03;30.00;;;22.60;74.60;;;;;;5044594;28;20096;-50
2023/09/13 03:38:56;;;;;;;44.28;30.55;;;22.60;74.50;;;;;;5048014;28;20072;-53
2023/09/13 03:41:26;;;;;;;42.67;30.27;;;22.60;74.40;;;;;;5031276;28;20044;-50
2023/09/13 03:43:52;;;;;;;41.65;30.13;;;22.60;74.70;;;;;;5040406;28;20140;-52
2023/09/13 03:46:20;;;;;;;44.30;29.80;;;22.60;74.60;;;;;;5044151;28;20454;-53
2023/09/13 03:48:55;;;;;;;43.58;31.45;;;22.60;74.50;;;;;;5034168;28;20103;-53
2023/09/13 03:51:21;;;;;;;43.80;31.50;;;22.70;74.50;;;;;;5036983;28;20068;-50
2023/09/13 03:53:50;;;;;;;41.28;28.63;;;22.60;74.40;;;;;;5034074;28;20072;-50
2023/09/13 03:56:25;;;;;;;36.33;27.50;;;22.60;74.10;;;;;;5047489;28;20059;-54
2023/09/13 03:58:51;;;;;;;34.85;26.25;;;22.60;74.00;;;;;;5030985;28;20037;-52
2023/09/13 04:01:19;;;;;;;35.63;25.92;;;22.60;73.70;;;;;;5044449;28;20041;-50
2023/09/13 04:03:54;;;;;;;34.25;24.95;;;22.60;73.70;;;;;;5041943;28;20049;-54
2023/09/13 04:06:21;;;;;;;37.53;26.75;;;22.60;73.60;;;;;;5045863;28;20125;-50
2023/09/13 04:08:48;;;;;;;37.15;27.17;;;22.50;73.60;;;;;;5032964;28;20078;-50
2023/09/13 04:11:15;;;;;;;42.75;30.20;;;22.50;73.80;;;;;;5036133;28;20083;-52
2023/09/13 04:13:42;;;;;;;40.78;29.73;;;22.50;74.00;;;;;;5046635;28;20048;-54
2023/09/13 04:16:14;;;;;;;47.75;32.58;;;22.50;74.30;;;;;;5044089;28;20041;-51
2023/09/13 04:18:43;;;;;;;51.08;34.15;;;22.50;74.40;;;;;;5048769;28;20071;-53
2023/09/13 04:21:13;;;;;;;51.88;34.67;;;22.60;74.30;;;;;;5048962;28;20044;-53
2023/09/13 04:23:44;;;;;;;51.78;33.90;;;22.50;74.00;;;;;;5045024;28;20398;-54
2023/09/13 04:26:13;;;;;;;55.35;33.28;;;22.50;73.90;;;;;;5049231;28;20055;-51
2023/09/13 04:28:40;;;;;;;51.55;34.45;;;22.50;73.80;;;;;;5051025;28;20587;-51
2023/09/13 04:31:07;;;;;;;48.95;33.30;;;22.50;73.80;;;;;;5040588;28;20037;-52
2023/09/13 04:33:50;;;;;;;47.80;32.42;;;22.50;73.80;;;;;;5042246;28;20060;-54
2023/09/13 04:36:22;;;;;;;48.15;32.05;;;22.50;74.20;;;;;;5038408;28;20538;-51
2023/09/13 04:38:49;;;;;;;46.35;31.88;;;22.40;73.80;;;;;;5035037;28;20551;-50
2023/09/13 04:41:17;;;;;;;47.60;31.00;;;22.40;73.60;;;;;;5020533;28;20099;-55
2023/09/13 04:43:44;;;;;;;41.63;29.55;;;22.40;73.80;;;;;;5045648;28;20033;-54
2023/09/13 04:46:12;;;;;;;43.55;31.63;;;22.40;73.80;;;;;;5024642;28;20100;-51
2023/09/13 04:48:39;;;;;;;43.53;29.20;;;22.40;73.70;;;;;;5055539;28;20044;-52
2023/09/13 04:51:06;;;;;;;40.80;28.52;;;22.30;73.60;;;;;;5044629;28;20033;-51
2023/09/13 04:53:33;;;;;;;38.78;27.48;;;22.30;73.50;;;;;;5036682;28;20123;-50
2023/09/13 04:56:02;;;;;;;38.45;27.50;;;22.30;73.50;;;;;;5028746;28;20132;-49
2023/09/13 04:58:35;;;;;;;40.30;27.30;;;22.30;73.40;;;;;;5027337;28;20049;-54
2023/09/13 05:01:04;;;;;;;41.13;27.35;;;22.30;73.50;;;;;;5035711;28;20053;-52
2023/09/13 05:03:31;;;;;;;39.63;27.15;;;22.30;73.60;;;;;;5024737;28;20114;-50
2023/09/13 05:05:58;;;;;;;41.13;27.05;;;22.20;73.60;;;;;;5041776;28;20107;-53
2023/09/13 05:08:25;;;;;;;41.20;27.92;;;22.20;73.60;;;;;;5038606;28;20568;-49
2023/09/13 05:10:53;;;;;;;38.63;27.90;;;22.20;73.60;;;;;;5029367;28;20072;-50
2023/09/13 05:13:20;;;;;;;36.17;26.27;;;22.20;73.60;;;;;;5042947;28;20506;-54
2023/09/13 05:15:47;;;;;;;39.33;25.95;;;22.20;73.70;;;;;;5041708;28;20032;-52
2023/09/13 05:18:14;;;;;;;34.67;25.48;;;22.20;73.80;;;;;;5029826;28;20041;-51
2023/09/13 05:20:41;;;;;;;41.95;26.80;;;22.20;73.80;;;;;;5029394;28;20037;-50
2023/09/13 05:23:07;;;;;;;36.22;25.80;;;22.20;74.00;;;;;;5038714;28;20120;-49
2023/09/13 05:25:34;;;;;;;38.00;27.00;;;22.20;73.90;;;;;;5043737;28;20115;-50
2023/09/13 05:28:02;;;;;;;39.13;25.33;;;22.20;73.90;;;;;;5029479;28;20554;-50
2023/09/13 05:30:31;;;;;;;34.42;25.67;;;22.10;73.80;;;;;;5043300;28;20581;-51
2023/09/13 05:32:58;;;;;;;33.78;25.10;;;22.10;73.80;;;;;;5044812;28;20038;-50
2023/09/13 05:35:25;;;;;;;35.22;24.48;;;22.10;73.80;;;;;;5043612;28;20140;-50
2023/09/13 05:37:51;;;;;;;37.60;26.50;;;22.10;73.80;;;;;;5031858;28;20069;-51
2023/09/13 05:40:18;;;;;;;37.85;25.63;;;22.10;73.80;;;;;;5030600;28;20415;-51
2023/09/13 05:42:45;;;;;;;34.33;25.75;;;22.10;74.00;;;;;;5036057;28;20046;-49
2023/09/13 05:45:11;;;;;;;34.13;24.42;;;22.10;74.00;;;;;;5040713;28;20156;-53
2023/09/13 05:47:38;;;;;;;34.20;24.20;;;22.10;74.10;;;;;;5040190;28;20486;-53
2023/09/13 05:50:05;;;;;;;34.85;24.95;;;22.10;74.10;;;;;;5040336;28;20065;-51
2023/09/13 05:52:33;;;;;;;36.28;26.38;;;22.10;74.30;;;;;;5035108;28;20431;-53
2023/09/13 05:54:59;;;;;;;35.42;26.17;;;22.10;74.40;;;;;;5045182;28;20047;-49
2023/09/13 05:57:29;;;;;;;36.42;26.38;;;22.10;74.40;;;;;;5035029;28;20542;-52
2023/09/13 05:59:56;;;;;;;34.63;25.40;;;22.10;74.30;;;;;;5035579;28;20037;-52
2023/09/13 06:02:22;;;;;;;33.40;24.73;;;22.10;74.20;;;;;;5045601;28;20127;-52
2023/09/13 06:04:49;;;;;;;34.67;26.33;;;22.00;74.20;;;;;;5041633;28;20473;-50
2023/09/13 06:07:16;;;;;;;32.70;26.17;;;22.00;74.20;;;;;;5041919;28;20053;-53
2023/09/13 06:09:43;;;;;;;30.02;24.40;;;22.00;74.30;;;;;;5039124;28;20569;-52
2023/09/13 06:12:11;;;;;;;31.98;23.83;;;22.00;74.20;;;;;;5033927;28;20037;-54
2023/09/13 06:14:37;;;;;;;33.30;24.42;;;22.00;74.30;;;;;;5039943;28;20116;-53
2023/09/13 06:17:04;;;;;;;28.08;21.83;;;22.00;74.50;;;;;;5042949;28;20112;-53
2023/09/13 06:19:31;;;;;;;30.02;22.63;;;22.00;74.60;;;;;;5043433;28;20057;-51
2023/09/13 06:21:58;;;;;;;33.35;23.88;;;22.00;74.40;;;;;;5034848;28;20068;-51
2023/09/13 06:24:25;;;;;;;30.35;21.73;;;22.00;74.20;;;;;;5045904;28;20084;-50
2023/09/13 06:26:52;;;;;;;27.33;20.85;;;22.00;74.10;;;;;;5039342;28;20121;-51
2023/09/13 06:29:19;;;;;;;30.15;21.50;;;22.00;74.00;;;;;;5036312;28;20056;-50
2023/09/13 06:31:47;;;;;;;28.88;20.70;;;22.00;74.00;;;;;;5044392;28;20521;-52
2023/09/13 06:34:31;;;;;;;26.88;19.90;;;22.00;74.10;;;;;;5044899;28;20095;-54
2023/09/13 06:36:58;;;;;;;26.85;20.85;;;22.00;73.80;;;;;;5042297;28;20068;-55
2023/09/13 06:39:26;;;;;;;27.52;19.27;;;22.00;73.90;;;;;;5037285;28;20049;-54
2023/09/13 06:41:56;;;;;;;27.83;21.10;;;22.00;74.00;;;;;;5043086;28;20554;-52
2023/09/13 06:44:22;;;;;;;26.08;20.13;;;22.00;74.00;;;;;;5029929;28;20045;-55
2023/09/13 06:46:52;;;;;;;27.58;20.98;;;22.00;74.30;;;;;;5065565;28;20041;-50
2023/09/13 06:49:29;;;;;;;28.52;20.65;;;22.00;74.30;;;;;;5043321;28;20451;-53
2023/09/13 06:51:57;;;;;;;27.83;19.63;;;22.00;74.30;;;;;;5036803;28;20049;-49
2023/09/13 06:54:28;;;;;;;25.98;19.33;;;22.00;74.40;;;;;;5046773;28;20179;-53
2023/09/13 06:56:58;;;;;;;27.52;20.85;;;22.10;74.60;;;;;;5034439;28;20049;-53
2023/09/13 06:59:27;;;;;;;28.48;21.38;;;22.10;74.60;;;;;;5036059;28;20045;-56
2023/09/13 07:01:57;;;;;;;27.02;20.42;;;22.10;74.90;;;;;;5045769;28;20049;-54
2023/09/13 07:04:43;;;;;;;28.77;20.45;;;22.20;74.00;;;;;;5041449;28;20112;-53
2023/09/13 07:07:30;;;;;;;25.38;18.70;;;22.20;73.70;;;;;;5042320;28;20049;-54
2023/09/13 07:09:56;;;;;;;25.95;18.05;;;22.20;73.50;;;;;;5044109;28;20040;-53
2023/09/13 07:12:23;;;;;;;24.73;18.25;;;22.20;73.50;;;;;;5042451;28;20491;-52
2023/09/13 07:14:54;;;;;;;25.55;17.98;;;22.10;73.60;;;;;;5044859;28;20044;-50
2023/09/13 07:17:21;;;;;;;27.40;18.55;;;22.20;73.60;;;;;;5028203;28;20088;-53
2023/09/13 07:19:49;;;;;;;27.08;18.02;;;22.10;73.60;;;;;;5045480;28;20051;-52
2023/09/13 07:22:15;;;;;;;25.35;18.10;;;22.20;73.70;;;;;;5037406;28;20037;-49
2023/09/13 07:24:42;;;;;;;23.13;16.70;;;22.20;74.10;;;;;;5036762;28;20057;-53
2023/09/13 07:27:11;;;;;;;28.33;17.45;;;22.10;74.10;;;;;;5035109;28;20045;-52
2023/09/13 07:29:38;;;;;;;25.17;18.60;;;22.20;74.30;;;;;;5041679;28;20107;-51
2023/09/13 07:32:05;;;;;;;27.45;19.00;;;22.20;74.60;;;;;;5041392;28;20048;-48
2023/09/13 07:34:32;;;;;;;23.98;18.05;;;22.30;75.00;;;;;;5038671;28;20048;-50
2023/09/13 07:36:59;;;;;;;23.00;17.60;;;22.40;74.80;;;;;;5046019;28;20606;-51
2023/09/13 07:39:28;;;;;;;24.40;17.95;;;22.40;74.60;;;;;;5037714;28;20044;-53
2023/09/13 07:41:55;;;;;;;24.98;17.58;;;22.60;74.00;;;;;;5041943;28;20072;-53
2023/09/13 07:44:22;;;;;;;26.67;17.83;;;22.60;73.60;;;;;;5038581;28;20055;-55
2023/09/13 07:46:48;;;;;;;24.38;18.83;;;22.70;73.10;;;;;;5046552;28;20196;-53
2023/09/13 07:49:15;;;;;;;26.00;17.50;;;22.80;72.90;;;;;;5037045;28;20033;-51
2023/09/13 07:51:42;;;;;;;22.35;16.98;;;22.80;72.50;;;;;;5039676;28;20116;-53
2023/09/13 07:54:09;;;;;;;25.55;17.40;;;22.80;72.00;;;;;;5043770;28;20041;-52
2023/09/13 07:56:37;;;;;;;26.90;17.63;;;22.70;71.80;;;;;;5039915;28;20041;-53
2023/09/13 07:59:07;;;;;;;24.77;16.75;;;22.80;71.80;;;;;;5041136;28;20413;-53
2023/09/13 08:01:34;;;;;;;23.92;17.77;;;22.90;71.90;;;;;;5036909;28;20045;-53
2023/09/13 08:04:00;;;;;;;22.45;16.73;;;22.90;72.00;;;;;;5042754;28;20515;-53
2023/09/13 08:06:27;;;;;;;24.30;16.77;;;22.90;72.00;;;;;;5046228;28;20045;-50
2023/09/13 08:08:54;;;;;;;24.95;16.65;;;22.90;72.10;;;;;;5036408;28;20697;-51
2023/09/13 08:11:24;;;;;;;24.08;16.40;;;22.90;71.80;;;;;;5035244;28;20121;-51
2023/09/13 08:13:51;;;;;;;21.77;17.48;;;22.90;71.70;;;;;;5044424;28;20043;-55
2023/09/13 08:16:19;;;;;;;23.50;17.73;;;22.90;71.80;;;;;;5045028;28;20044;-53
2023/09/13 08:18:46;;;;;;;23.52;18.08;;;23.00;72.00;;;;;;5044441;28;20047;-53
2023/09/13 08:21:12;;;;;;;20.38;15.90;;;23.00;71.90;;;;;;5039607;28;20503;-52
2023/09/13 08:23:39;;;;;;;23.50;17.15;;;23.10;71.80;;;;;;5038774;28;20052;-50
2023/09/13 08:26:06;;;;;;;22.13;15.68;;;23.10;71.80;;;;;;5039424;28;20045;-52
2023/09/13 08:28:52;;;;;;;22.73;15.35;;;23.20;71.50;;;;;;5035625;28;20052;-54
2023/09/13 08:31:19;;;;;;;24.83;17.27;;;23.20;71.50;;;;;;5041117;28;20450;-50
2023/09/13 08:33:46;;;;;;;20.95;15.52;;;23.30;71.10;;;;;;5038351;28;20507;-56
2023/09/13 08:36:13;;;;;;;19.95;15.82;;;23.30;70.90;;;;;;5042743;28;20091;-52
2023/09/13 08:38:40;;;;;;;18.95;14.82;;;23.40;71.20;;;;;;5046477;28;20099;-53
2023/09/13 08:41:07;;;;;;;18.83;14.88;;;23.40;71.20;;;;;;5040081;28;20032;-54
2023/09/13 08:43:36;;;;;;;20.77;16.23;;;23.50;71.00;;;;;;5045380;28;20056;-53
2023/09/13 08:46:03;;;;;;;21.90;16.50;;;23.60;71.00;;;;;;5044570;28;20116;-50
2023/09/13 08:48:32;;;;;;;19.30;14.23;;;23.70;71.10;;;;;;5029136;28;20061;-50
2023/09/13 08:51:02;;;;;;;18.60;13.55;;;23.80;70.60;;;;;;5033753;28;20119;-55
2023/09/13 08:53:31;;;;;;;17.60;14.27;;;23.90;70.20;;;;;;5034947;28;20045;-52
2023/09/13 08:55:59;;;;;;;16.83;14.30;;;23.90;70.20;;;;;;5041074;28;20041;-53
2023/09/13 08:58:26;;;;;;;18.67;13.77;;;24.00;69.50;;;;;;5042432;28;20041;-53
2023/09/13 09:00:55;;;;;;;17.52;13.77;;;24.10;69.50;;;;;;5028354;28;20392;-54
2023/09/13 09:03:24;;;;;;;18.00;13.82;;;24.20;69.50;;;;;;5041642;28;20483;-50
2023/09/13 09:05:52;;;;;;;16.52;13.20;;;24.20;68.50;;;;;;5040868;28;20618;-50
2023/09/13 09:08:20;;;;;;;18.77;12.90;;;24.20;68.30;;;;;;5038896;28;20092;-52
2023/09/13 09:10:49;;;;;;;15.70;12.77;;;24.20;68.30;;;;;;5040279;28;20037;-49
2023/09/13 09:13:19;;;;;;;14.65;12.40;;;24.30;68.20;;;;;;5043332;28;20087;-50
2023/09/13 09:15:46;;;;;;;17.83;13.75;;;24.30;67.70;;;;;;5038229;28;20049;-51
2023/09/13 09:18:14;;;;;;;15.02;12.80;;;24.40;67.50;;;;;;5040225;28;20041;-51
2023/09/13 09:20:43;;;;;;;15.35;12.05;;;24.30;67.10;;;;;;5042946;28;20170;-54
2023/09/13 09:23:11;;;;;;;14.70;11.73;;;24.40;67.70;;;;;;5037234;28;20099;-53
2023/09/13 09:25:44;;;;;;;15.35;11.55;;;24.40;67.60;;;;;;5041910;28;20052;-53
2023/09/13 09:28:11;;;;;;;15.48;11.80;;;24.40;67.20;;;;;;5044410;28;20046;-50
2023/09/13 09:30:37;;;;;;;15.20;11.13;;;24.40;67.10;;;;;;5047214;28;20045;-53
2023/09/13 09:33:05;;;;;;;15.88;11.73;;;24.50;67.00;;;;;;5045682;28;20522;-52
2023/09/13 09:35:33;;;;;;;13.80;10.85;;;24.50;67.20;;;;;;5045087;28;20045;-52
2023/09/13 09:38:00;;;;;;;15.32;11.23;;;24.50;67.20;;;;;;5044114;28;20388;-50
2023/09/13 09:40:27;;;;;;;14.02;11.18;;;24.50;67.00;;;;;;5044991;28;20095;-49
2023/09/13 09:42:57;;;;;;;13.93;11.20;;;24.60;66.80;;;;;;5040786;28;20120;-51
2023/09/13 09:45:24;;;;;;;12.27;10.88;;;24.70;66.50;;;;;;5043965;28;20123;-49
2023/09/13 09:47:51;;;;;;;15.00;10.88;;;24.60;66.50;;;;;;5042406;28;20052;-51
2023/09/13 09:50:18;;;;;;;17.60;12.32;;;24.60;66.30;;;;;;5043887;28;20129;-51
2023/09/13 09:52:52;;;;;;;15.00;10.30;;;24.50;66.00;;;;;;5046958;28;20053;-50
2023/09/13 09:55:21;;;;;;;15.88;11.38;;;24.50;66.10;;;;;;5044542;28;20115;-52
2023/09/13 09:57:50;;;;;;;13.98;10.60;;;24.40;66.30;;;;;;5046941;28;20524;-50
2023/09/13 10:00:18;;;;;;;12.30;9.95;;;24.40;66.20;;;;;;5046151;28;20442;-51
2023/09/13 10:02:45;;;;;;;12.32;10.75;;;24.30;66.30;;;;;;5041991;28;20053;-52
2023/09/13 10:05:18;;;;;;;10.73;8.90;;;24.30;66.00;;;;;;5042511;28;20045;-50
2023/09/13 10:07:50;;;;;;;7.07;5.40;;;24.20;66.20;;;;;;5045418;28;20403;-54
2023/09/13 10:10:37;;;;;;;8.43;4.72;;;24.10;66.30;;;;;;5040585;28;20049;-49
2023/09/13 10:13:04;;;;;;;2.45;2.25;;;24.00;65.80;;;;;;5044199;28;20033;-56
2023/09/13 10:15:31;;;;;;;1.80;1.38;;;23.80;64.70;;;;;;5041342;28;20096;-48
2023/09/13 10:18:01;;;;;;;1.23;0.98;;;23.70;64.40;;;;;;5045815;28;20073;-52
2023/09/13 10:20:30;;;;;;;2.15;0.98;;;23.40;64.60;;;;;;5043446;28;20044;-52
2023/09/13 10:23:00;;;;;;;2.10;1.00;;;23.10;64.80;;;;;;5044819;28;20045;-50
2023/09/13 10:25:31;;;;;;;4.53;1.25;;;22.90;65.20;;;;;;5044230;28;20049;-50
2023/09/13 10:28:01;;;;;;;2.75;1.33;;;22.60;65.90;;;;;;5045077;28;20033;-53
2023/09/13 10:30:29;;;;;;;0.88;0.85;;;22.40;66.20;;;;;;5044629;28;20040;-50
2023/09/13 10:33:03;;;;;;;0.77;0.77;;;22.20;66.80;;;;;;5044422;28;20068;-51
2023/09/13 10:35:32;;;;;;;3.33;0.93;;;22.00;68.40;;;;;;5046227;28;20124;-49
2023/09/13 10:38:36;;;;;;;4.20;1.05;;;21.80;68.50;;;;;;5045611;28;20498;-54
2023/09/13 10:41:05;;;;;;;1.88;0.88;;;21.70;69.30;;;;;;5042333;28;20083;-49
2023/09/13 10:43:33;;;;;;;0.95;0.80;;;21.50;69.90;;;;;;5045412;28;20052;-49
2023/09/13 10:46:02;;;;;;;0.75;0.75;;;21.50;70.30;;;;;;5036212;28;20042;-51
2023/09/13 10:48:30;;;;;;;1.13;0.63;;;21.50;71.00;;;;;;5046822;28;20392;-55
2023/09/13 10:50:59;;;;;;;1.90;1.10;;;21.40;71.10;;;;;;5043739;28;20043;-54
2023/09/13 10:53:26;;;;;;;2.03;0.85;;;21.50;71.90;;;;;;5048246;28;20132;-53
2023/09/13 10:55:54;;;;;;;1.70;1.23;;;21.50;71.80;;;;;;5045815;28;20041;-53
2023/09/13 10:58:22;;;;;;;0.93;0.80;;;21.60;72.50;;;;;;5046539;28;20060;-50
2023/09/13 11:00:57;;;;;;;2.30;1.25;;;21.70;72.80;;;;;;5045709;28;20129;-53
2023/09/13 11:03:24;;;;;;;0.90;0.90;;;21.80;72.90;;;;;;5041105;28;20120;-50
2023/09/13 11:05:56;;;;;;;2.53;1.30;;;21.90;72.40;;;;;;5032169;28;20051;-52
2023/09/13 11:08:31;;;;;;;0.95;0.82;;;22.00;72.10;;;;;;5042515;28;20064;-49
2023/09/13 11:11:18;;;;;;;1.98;0.95;;;22.10;71.20;;;;;;5042505;28;20037;-50
2023/09/13 11:13:50;;;;;;;2.05;0.77;;;22.20;70.40;;;;;;5041113;28;20040;-54
2023/09/13 11:16:17;;;;;;;;;;;22.20;70.50;;;;;;5045860;28;20077;-52
2023/09/13 11:18:52;;;;;;;0.85;0.80;;;22.30;70.30;;;;;;5046995;28;19921;-53
2023/09/13 11:21:23;;;;;;;1.85;0.90;;;22.30;69.60;;;;;;5045538;28;20038;-50
2023/09/13 11:23:52;;;;;;;1.08;1.00;;;22.30;70.00;;;;;;5043046;28;20050;-52
2023/09/13 11:26:41;;;;;;;1.45;0.70;;;22.30;70.00;;;;;;5043673;28;20094;-52
2023/09/13 11:29:23;;;;;;;0.98;0.88;;;22.40;69.80;;;;;;5048317;28;20116;-49
2023/09/13 11:31:57;;;;;;;1.33;1.17;;;22.40;69.60;;;;;;5044424;28;20045;-52
2023/09/13 11:34:28;;;;;;;2.83;0.90;;;22.40;70.60;;;;;;5043582;28;20045;-51
2023/09/13 11:37:00;;;;;;;1.55;1.00;;;22.40;69.50;;;;;;5044870;28;20056;-49
2023/09/13 11:39:27;;;;;;;1.05;0.80;;;22.40;69.20;;;;;;5043002;28;20053;-50
2023/09/13 11:41:55;;;;;;;3.03;0.90;;;22.40;69.00;;;;;;5043547;28;20096;-53
2023/09/13 11:44:23;;;;;;;1.48;0.80;;;22.40;69.00;;;;;;5037608;28;20037;-53
2023/09/13 11:47:00;;;;;;;0.57;0.57;;;22.40;69.00;;;;;;5038847;28;20411;-50
2023/09/13 11:49:28;;;;;;;0.60;0.50;;;22.40;68.70;;;;;;5041678;28;20033;-49
2023/09/13 11:52:03;;;;;;;0.57;0.57;;;22.50;68.70;;;;;;5045410;28;20099;-50
2023/09/13 11:55:11;;;;;;;0.85;0.60;;;22.50;68.20;;;;;;5044177;28;20051;-50
2023/09/13 11:57:57;;;;;;;1.38;0.65;;;22.60;68.40;;;;;;5041918;28;20124;-51
2023/09/13 12:00:28;;;;;;;0.50;0.45;;;22.70;67.60;;;;;;5043279;28;20045;-48
2023/09/13 12:02:58;;;;;;;0.70;0.70;;;22.70;67.20;;;;;;5047314;28;20063;-49
2023/09/13 12:05:30;;;;;;;0.98;0.90;;;22.80;66.70;;;;;;5043990;28;20100;-51
2023/09/13 12:08:27;;;;;;;0.63;0.60;;;22.80;67.00;;;;;;5042772;28;20052;-55
2023/09/13 12:11:00;;;;;;;1.65;0.90;;;22.80;67.20;;;;;;5040348;28;20132;-51
2023/09/13 12:13:50;;;;;;;0.70;0.70;;;22.90;67.20;;;;;;5028113;28;20057;-50
2023/09/13 12:16:22;;;;;;;1.40;0.75;;;22.90;67.30;;;;;;5044882;28;20570;-51
2023/09/13 12:18:49;;;;;;;1.88;0.68;;;23.00;66.10;;;;;;5044072;28;20128;-49
2023/09/13 12:21:18;;;;;;;0.50;0.50;;;23.00;66.60;;;;;;5039628;28;20434;-53
2023/09/13 12:23:48;;;;;;;1.08;0.85;;;23.00;66.00;;;;;;5044013;28;20045;-53
2023/09/13 12:26:16;;;;;;;0.68;0.68;;;23.00;65.70;;;;;;5038782;28;20091;-53
2023/09/13 12:28:45;;;;;;;2.25;0.60;;;23.00;64.90;;;;;;5043891;28;20045;-50
2023/09/13 12:31:15;;;;;;;0.80;0.80;;;23.10;64.90;;;;;;5040101;28;20103;-53
2023/09/13 12:33:44;;;;;;;0.98;0.90;;;23.00;64.80;;;;;;5044393;28;20045;-51
2023/09/13 12:36:11;;;;;;;0.85;0.80;;;23.10;65.20;;;;;;5040014;28;20033;-50
2023/09/13 12:38:41;;;;;;;1.00;0.88;;;23.10;65.50;;;;;;5038564;28;20935;-52
2023/09/13 12:41:10;;;;;;;1.13;0.90;;;23.20;64.90;;;;;;5040652;28;20044;-52
2023/09/13 12:43:39;;;;;;;3.05;0.85;;;23.30;64.90;;;;;;5042365;28;20099;-51